Time;durP1;ratioP1;P1;durP2;ratioP2;P2;SDS_P1;SDS_P2;PMS_P1;PMS_P2;Temp;Humidity;BMP_temperature;BMP_pressure;BME280_temperature;BME280_humidity;BME280_pressure;Samples;Min_cycle;Max_cycle;Signal;HPM_P1;HPM_P2
2021/11/04 00:01:16;;;;;;;25.20;21.07;;;7.80;97.00;;;6.60;97.66;96405.66;5043870;28;20565;-72
2021/11/04 00:03:43;;;;;;;27.03;22.77;;;7.80;96.70;;;6.61;97.60;96425.25;5041241;28;20790;-72
2021/11/04 00:06:10;;;;;;;24.07;20.70;;;7.90;96.10;;;6.43;98.73;96428.81;5038732;28;20466;-73
2021/11/04 00:08:37;;;;;;;26.10;21.73;;;7.70;96.80;;;6.39;99.09;96425.75;5046204;28;20462;-72
2021/11/04 00:11:06;;;;;;;23.60;21.10;;;7.70;98.90;;;6.40;99.51;96413.19;5039465;28;20520;-73
2021/11/04 00:13:33;;;;;;;26.10;21.20;;;7.60;99.90;;;6.38;100.00;96397.28;5047007;28;20450;-70
2021/11/04 00:16:00;;;;;;;26.60;21.47;;;7.60;99.90;;;6.43;100.00;96392.06;5040553;28;20961;-72
2021/11/04 00:18:27;;;;;;;26.13;22.60;;;7.70;99.90;;;6.52;100.00;96401.44;5048661;28;20830;-71
2021/11/04 00:20:54;;;;;;;26.70;22.93;;;7.70;99.90;;;6.49;100.00;96396.53;5061032;28;20478;-72
2021/11/04 00:23:25;;;;;;;23.03;20.17;;;7.70;99.90;;;6.59;98.86;96377.19;5046629;28;20952;-72
2021/11/04 00:25:52;;;;;;;26.10;22.30;;;7.80;99.50;;;6.40;98.99;96375.63;5062645;28;20754;-72
2021/11/04 00:28:20;;;;;;;23.43;20.90;;;7.70;97.70;;;6.29;100.00;96364.63;5047870;28;20480;-72
2021/11/04 00:30:48;;;;;;;24.17;20.70;;;7.60;99.60;;;6.41;99.72;96350.44;5047456;28;20867;-73
2021/11/04 00:33:15;;;;;;;25.23;22.03;;;7.60;99.90;;;6.40;100.00;96338.84;5048868;28;20462;-73
2021/11/04 00:35:42;;;;;;;26.40;22.27;;;7.70;99.90;;;6.38;99.59;96322.19;5050259;28;20466;-72
2021/11/04 00:38:09;;;;;;;23.63;21.00;;;7.70;99.30;;;6.33;100.00;96324.75;5047526;28;20481;-73
2021/11/04 00:40:36;;;;;;;24.43;21.13;;;7.60;99.90;;;6.37;99.62;96331.28;5032523;28;20551;-74
2021/11/04 00:43:04;;;;;;;26.10;21.90;;;7.60;99.90;;;6.27;100.00;96339.06;5046080;28;20528;-73
2021/11/04 00:45:32;;;;;;;24.33;21.77;;;7.50;99.90;;;6.35;100.00;96344.91;5048220;28;20548;-71
2021/11/04 00:47:59;;;;;;;29.17;22.77;;;7.60;99.90;;;6.31;100.00;96345.63;5044928;28;20486;-71
2021/11/04 00:50:27;;;;;;;25.60;22.20;;;7.60;99.90;;;6.25;100.00;96352.72;5047121;28;20478;-72
2021/11/04 00:52:55;;;;;;;27.77;22.10;;;7.50;99.90;;;6.27;100.00;96357.84;5045721;28;20486;-72
2021/11/04 00:55:22;;;;;;;25.60;21.33;;;7.50;99.90;;;6.36;99.68;96343.06;5061993;28;20488;-72
2021/11/04 00:57:49;;;;;;;23.73;21.23;;;7.60;99.90;;;6.28;99.89;96340.69;5048583;28;20609;-72
2021/11/04 01:00:17;;;;;;;25.30;21.10;;;7.50;99.90;;;6.28;100.00;96329.97;5049304;28;20869;-72
2021/11/04 01:02:45;;;;;;;24.37;21.20;;;7.50;99.90;;;6.21;100.00;96320.16;5047301;28;20465;-71
2021/11/04 01:05:13;;;;;;;25.50;22.60;;;7.50;99.90;;;6.48;99.99;96319.75;5041768;28;20564;-71
2021/11/04 01:07:40;;;;;;;25.77;22.10;;;7.60;99.90;;;6.33;100.00;96300.59;5046681;28;21052;-72
2021/11/04 01:10:08;;;;;;;25.30;22.13;;;7.60;99.90;;;6.36;100.00;96321.59;5061696;28;20541;-71
2021/11/04 01:12:36;;;;;;;27.63;22.73;;;7.60;99.90;;;6.25;100.00;96323.22;5047482;28;21008;-72
2021/11/04 01:15:06;;;;;;;29.10;23.40;;;7.50;99.90;;;6.11;100.00;96329.81;5045133;28;20466;-72
2021/11/04 01:17:35;;;;;;;24.80;21.80;;;7.40;99.90;;;6.07;100.00;96332.97;5056735;28;20504;-72
2021/11/04 01:20:06;;;;;;;28.53;23.20;;;7.40;99.90;;;6.03;100.00;96334.44;5056760;28;20483;-72
2021/11/04 01:22:34;;;;;;;27.60;24.23;;;7.30;99.90;;;6.02;100.00;96348.09;5055982;28;20512;-71
2021/11/04 01:25:01;;;;;;;26.83;23.33;;;7.30;99.90;;;6.12;100.00;96342.97;5048329;28;20956;-71
2021/11/04 01:27:28;;;;;;;25.90;22.37;;;7.30;99.90;;;6.11;100.00;96330.63;5045841;28;20562;-71
2021/11/04 01:29:55;;;;;;;29.13;22.50;;;7.40;99.90;;;6.31;100.00;96341.06;5045770;28;20968;-72
2021/11/04 01:32:22;;;;;;;26.40;22.43;;;7.40;99.90;;;6.29;99.53;96319.00;5045638;28;20873;-72
2021/11/04 01:34:49;;;;;;;25.97;22.27;;;7.50;99.90;;;6.38;99.39;96330.22;5046733;28;20946;-72
2021/11/04 01:37:18;;;;;;;27.30;22.20;;;7.60;99.90;;;6.42;99.38;96328.72;5046069;28;20573;-72
2021/11/04 01:39:45;;;;;;;24.50;21.27;;;7.60;99.90;;;6.21;100.00;96327.38;5046919;28;20483;-72
2021/11/04 01:42:12;;;;;;;22.10;19.70;;;7.50;99.80;;;6.17;100.00;96321.69;5044503;28;20948;-72
2021/11/04 01:44:39;;;;;;;26.73;21.77;;;7.50;99.90;;;6.14;99.80;96332.88;5047656;28;20919;-72
2021/11/04 01:47:08;;;;;;;26.87;21.00;;;7.40;99.90;;;6.34;99.44;96323.69;5047451;28;21000;-73
2021/11/04 01:49:37;;;;;;;27.10;22.50;;;7.50;99.90;;;6.29;99.09;96332.44;5050543;28;21052;-72
2021/11/04 01:52:05;;;;;;;25.57;22.00;;;7.50;97.90;;;6.29;99.54;96331.59;5062408;28;20836;-72
2021/11/04 01:54:33;;;;;;;25.50;22.80;;;7.50;99.30;;;6.23;99.33;96323.44;5047028;28;20486;-72
2021/11/04 01:57:01;;;;;;;27.60;22.40;;;7.50;98.70;;;6.23;100.00;96315.38;5047507;28;20509;-71
2021/11/04 01:59:28;;;;;;;27.00;22.40;;;7.50;99.90;;;6.20;100.00;96318.53;5049433;28;20446;-71
2021/11/04 02:02:02;;;;;;;27.23;22.80;;;7.50;99.40;;;6.31;99.71;96316.13;5045018;28;20876;-71
2021/11/04 02:04:40;;;;;;;28.13;22.90;;;7.50;99.20;;;6.28;99.42;96309.34;5047980;28;20930;-71
2021/11/04 02:07:14;;;;;;;29.43;23.10;;;7.50;98.80;;;6.38;99.57;96303.41;5047231;28;20497;-70
2021/11/04 02:09:51;;;;;;;29.67;23.10;;;7.50;99.90;;;6.45;99.47;96303.31;5044720;28;20469;-71
2021/11/04 02:12:28;;;;;;;27.67;23.17;;;7.60;99.40;;;6.48;99.48;96298.28;5063447;28;20543;-71
2021/11/04 02:14:59;;;;;;;25.87;21.63;;;7.70;99.30;;;6.32;100.00;96299.78;5053058;28;20462;-71
2021/11/04 02:17:29;;;;;;;33.37;25.10;;;7.60;99.90;;;6.48;99.91;96292.94;5052977;28;20461;-71
2021/11/04 02:20:00;;;;;;;27.73;23.20;;;7.60;99.90;;;6.61;97.58;96289.19;5049686;28;20470;-71
2021/11/04 02:22:40;;;;;;;29.77;21.90;;;7.80;97.80;;;6.55;98.96;96286.63;5050919;28;20709;-71
2021/11/04 02:25:14;;;;;;;25.57;20.97;;;7.70;98.50;;;6.59;99.00;96285.09;5047773;28;20476;-72
2021/11/04 02:27:47;;;;;;;24.20;20.43;;;7.80;98.70;;;6.37;98.85;96291.03;5050123;28;20453;-72
2021/11/04 02:30:15;;;;;;;27.67;22.67;;;7.70;97.30;;;6.32;99.49;96277.50;5049725;28;20730;-72
2021/11/04 02:32:43;;;;;;;27.83;23.80;;;7.60;98.70;;;6.27;100.00;96286.25;5046807;28;20493;-71
2021/11/04 02:35:10;;;;;;;30.63;23.77;;;7.50;99.90;;;6.19;100.00;96289.25;5041339;28;20480;-71
2021/11/04 02:37:39;;;;;;;28.20;24.10;;;7.50;99.90;;;6.22;100.00;96284.25;5048602;28;20967;-71
2021/11/04 02:40:10;;;;;;;29.73;24.10;;;7.50;99.90;;;6.43;100.00;96294.66;5042071;28;20898;-71
2021/11/04 02:42:38;;;;;;;28.03;22.00;;;7.60;99.90;;;6.32;100.00;96294.41;5050676;28;21146;-71
2021/11/04 02:45:07;;;;;;;29.90;24.00;;;7.60;99.90;;;6.30;100.00;96303.75;5049969;28;20462;-71
2021/11/04 02:47:36;;;;;;;30.57;24.30;;;7.60;99.90;;;6.29;99.97;96310.13;5050334;28;20499;-72
2021/11/04 02:50:04;;;;;;;32.37;26.47;;;7.60;99.90;;;6.27;100.00;96301.50;5046808;28;20549;-71
2021/11/04 02:52:31;;;;;;;30.73;24.63;;;7.60;99.90;;;6.27;100.00;96290.78;5050718;28;20516;-71
2021/11/04 02:54:59;;;;;;;28.47;23.90;;;7.50;99.90;;;6.03;100.00;96293.41;5050449;28;20486;-70
2021/11/04 02:57:29;;;;;;;33.17;25.80;;;7.40;99.90;;;6.03;100.00;96296.09;5050381;28;20490;-70
2021/11/04 02:59:56;;;;;;;35.77;26.63;;;7.30;99.90;;;5.95;100.00;96289.97;5047926;28;20462;-71
2021/11/04 03:02:24;;;;;;;30.77;27.03;;;7.30;99.90;;;5.98;100.00;96290.56;5050509;28;21112;-72
2021/11/04 03:04:51;;;;;;;36.83;27.23;;;7.30;99.90;;;5.95;100.00;96289.16;5050033;28;21143;-71
2021/11/04 03:07:18;;;;;;;37.67;28.23;;;7.20;99.90;;;5.93;100.00;96289.38;5056932;28;21243;-71
2021/11/04 03:09:45;;;;;;;33.77;27.60;;;7.20;99.90;;;5.90;100.00;96289.84;5048578;28;20458;-72
2021/11/04 03:12:12;;;;;;;34.87;26.57;;;7.30;99.90;;;5.87;100.00;96293.00;5047151;28;20458;-70
2021/11/04 03:14:40;;;;;;;30.67;25.80;;;7.20;99.90;;;5.90;100.00;96297.06;5048737;28;20523;-71
2021/11/04 03:17:08;;;;;;;34.23;26.57;;;7.20;99.90;;;5.75;100.00;96276.03;5050724;28;20540;-71
2021/11/04 03:19:35;;;;;;;34.50;27.10;;;7.20;99.90;;;5.82;100.00;96295.50;5038651;28;20982;-71
2021/11/04 03:22:03;;;;;;;35.97;27.20;;;7.20;99.90;;;5.76;100.00;96288.38;5047403;28;20501;-70
2021/11/04 03:24:31;;;;;;;42.63;29.80;;;7.10;99.90;;;5.88;100.00;96299.16;5040325;28;20876;-71
2021/11/04 03:27:03;;;;;;;37.10;26.80;;;7.20;99.90;;;5.90;100.00;96297.88;5043589;28;20549;-71
2021/11/04 03:29:33;;;;;;;34.57;26.37;;;7.20;99.90;;;5.74;100.00;96282.44;5049918;28;20611;-71
2021/11/04 03:32:06;;;;;;;37.97;28.77;;;7.20;99.90;;;5.70;100.00;96283.94;5044971;28;20451;-71
2021/11/04 03:34:34;;;;;;;40.00;28.23;;;7.10;99.90;;;5.72;100.00;96285.34;5048333;28;20742;-71
2021/11/04 03:37:04;;;;;;;39.00;28.50;;;7.10;99.90;;;5.76;100.00;96291.06;5047979;28;20814;-71
2021/11/04 03:39:32;;;;;;;42.50;30.40;;;7.10;99.90;;;5.79;100.00;96285.25;5049077;28;20476;-72
2021/11/04 03:42:00;;;;;;;37.57;27.87;;;7.10;99.90;;;5.82;100.00;96274.06;5049861;28;20510;-72
2021/11/04 03:44:28;;;;;;;43.60;27.80;;;7.10;99.90;;;5.71;100.00;96256.09;5045635;28;20858;-71
2021/11/04 03:46:57;;;;;;;36.53;26.37;;;7.10;99.90;;;5.66;100.00;96262.94;5048592;28;20508;-71
2021/11/04 03:49:29;;;;;;;38.90;27.80;;;7.00;99.90;;;5.62;100.00;96259.09;5048402;28;20557;-71
2021/11/04 03:51:56;;;;;;;39.43;28.70;;;7.10;99.90;;;5.69;100.00;96248.28;5057895;28;20462;-71
2021/11/04 03:54:26;;;;;;;41.00;28.93;;;7.10;99.90;;;5.66;100.00;96244.19;5047922;28;20503;-71
2021/11/04 03:56:55;;;;;;;39.50;29.03;;;7.00;99.90;;;5.69;100.00;96237.56;5048883;28;20941;-70
2021/11/04 03:59:22;;;;;;;42.97;29.83;;;7.00;99.90;;;5.62;100.00;96234.19;5063488;28;21028;-71
2021/11/04 04:01:51;;;;;;;42.47;30.20;;;7.00;99.90;;;5.62;100.00;96231.50;5058200;28;20525;-71
2021/11/04 04:04:19;;;;;;;40.63;29.17;;;7.00;99.90;;;5.66;100.00;96235.34;5049043;28;20466;-71
2021/11/04 04:06:52;;;;;;;43.00;30.40;;;7.00;99.90;;;5.76;100.00;96242.84;5047863;28;20449;-73
2021/11/04 04:09:20;;;;;;;43.70;30.47;;;7.00;99.90;;;5.71;100.00;96246.19;5063685;28;20868;-73
2021/11/04 04:11:47;;;;;;;45.90;30.00;;;7.10;99.90;;;5.72;100.00;96252.38;5054859;28;20461;-73
2021/11/04 04:14:14;;;;;;;44.20;30.10;;;7.10;99.90;;;5.78;100.00;96244.25;5060219;28;20462;-73
2021/11/04 04:16:41;;;;;;;40.33;28.93;;;7.10;99.90;;;5.78;100.00;96246.09;5057814;28;20553;-72
2021/11/04 04:19:08;;;;;;;43.30;29.00;;;7.10;99.90;;;5.75;100.00;96233.16;5048736;28;20442;-71
2021/11/04 04:21:36;;;;;;;42.30;27.73;;;7.10;99.90;;;5.59;100.00;96215.84;5044972;28;20481;-72
2021/11/04 04:24:05;;;;;;;45.07;28.77;;;7.00;99.90;;;5.57;100.00;96213.41;5047534;28;20580;-73
2021/11/04 04:26:32;;;;;;;41.37;27.27;;;7.00;99.90;;;5.66;100.00;96221.94;5063214;28;20896;-72
2021/11/04 04:28:59;;;;;;;40.60;26.87;;;7.00;99.90;;;5.59;100.00;96221.22;5040383;28;20472;-72
2021/11/04 04:31:26;;;;;;;40.67;26.97;;;7.00;99.90;;;5.62;100.00;96251.06;5059026;28;20457;-72
2021/11/04 04:33:53;;;;;;;43.77;27.63;;;7.00;99.90;;;5.69;100.00;96242.94;5047632;28;20474;-73
2021/11/04 04:36:20;;;;;;;39.47;26.97;;;7.00;99.90;;;5.77;100.00;96250.66;5048866;28;20468;-72
2021/11/04 04:38:47;;;;;;;43.47;29.77;;;7.10;99.90;;;5.70;100.00;96243.75;5046234;28;20462;-73
2021/11/04 04:41:16;;;;;;;38.40;28.17;;;7.00;99.90;;;5.71;100.00;96223.94;5046935;28;20565;-73
2021/11/04 04:43:43;;;;;;;42.67;29.03;;;7.00;99.90;;;5.46;100.00;96195.44;5045764;28;20450;-73
2021/11/04 04:46:10;;;;;;;52.33;31.17;;;7.00;99.90;;;5.58;100.00;96225.78;5047148;28;20477;-73
2021/11/04 04:48:37;;;;;;;49.97;30.37;;;7.00;99.90;;;5.64;100.00;96230.22;5064238;28;20557;-74
2021/11/04 04:51:05;;;;;;;43.27;27.87;;;7.00;99.90;;;5.60;100.00;96229.03;5045831;28;20474;-73
2021/11/04 04:53:32;;;;;;;44.90;28.07;;;7.00;99.90;;;5.66;100.00;96246.88;5046768;28;20992;-73
2021/11/04 04:55:59;;;;;;;45.17;28.27;;;7.00;99.90;;;5.76;100.00;96259.75;5057452;28;20482;-72
2021/11/04 04:58:27;;;;;;;46.50;29.20;;;7.00;99.90;;;5.84;100.00;96268.50;5046640;28;20454;-72
2021/11/04 05:00:54;;;;;;;40.90;25.70;;;7.10;99.90;;;5.83;100.00;96273.03;5052119;28;20487;-73
2021/11/04 05:03:22;;;;;;;38.00;25.47;;;7.20;99.90;;;5.72;100.00;96265.78;5073410;28;20783;-72
2021/11/04 05:05:49;;;;;;;43.03;26.47;;;7.10;99.90;;;5.72;100.00;96279.97;5043964;28;20938;-72
2021/11/04 05:08:16;;;;;;;40.83;27.70;;;7.10;99.90;;;5.85;100.00;96299.63;5046332;28;20489;-72
2021/11/04 05:10:43;;;;;;;38.53;26.80;;;7.10;99.90;;;5.87;100.00;96298.34;5047030;28;20949;-72
2021/11/04 05:13:10;;;;;;;43.60;27.00;;;7.20;99.90;;;5.75;100.00;96310.88;5051909;28;20450;-73
2021/11/04 05:15:38;;;;;;;44.50;28.20;;;7.10;99.90;;;5.87;100.00;96286.78;5044367;28;20501;-75
2021/11/04 05:18:07;;;;;;;39.17;25.80;;;7.20;99.90;;;5.98;100.00;96312.84;5039632;28;20841;-72
2021/11/04 05:20:35;;;;;;;37.23;26.70;;;7.20;99.90;;;5.87;100.00;96311.75;5048401;28;20552;-73
2021/11/04 05:23:01;;;;;;;39.03;27.20;;;7.20;99.90;;;5.95;100.00;96319.47;5046088;28;20536;-73
2021/11/04 05:25:28;;;;;;;37.87;26.97;;;7.20;99.90;;;6.06;100.00;96314.41;5047141;28;20489;-72
2021/11/04 05:27:56;;;;;;;38.17;27.13;;;7.30;99.90;;;5.90;100.00;96292.53;5046976;28;20552;-73
2021/11/04 05:30:23;;;;;;;41.43;27.20;;;7.30;99.90;;;6.06;100.00;96325.13;5044200;28;20949;-72
2021/11/04 05:32:51;;;;;;;38.60;26.07;;;7.40;99.90;;;6.02;100.00;96299.84;5047556;28;20470;-72
2021/11/04 05:35:19;;;;;;;40.50;27.63;;;7.40;99.90;;;6.10;100.00;96315.56;5046249;28;20461;-72
2021/11/04 05:37:47;;;;;;;39.87;27.47;;;7.40;99.90;;;6.08;100.00;96331.06;5050341;28;20803;-73
2021/11/04 05:40:15;;;;;;;42.13;26.67;;;7.40;99.90;;;6.01;100.00;96351.78;5046531;28;20935;-73
2021/11/04 05:42:44;;;;;;;37.87;25.83;;;7.30;99.90;;;5.99;100.00;96343.97;5050791;28;20488;-72
2021/11/04 05:45:11;;;;;;;35.40;26.03;;;7.30;99.90;;;6.12;100.00;96332.25;5050705;28;20469;-72
2021/11/04 05:47:39;;;;;;;42.47;28.70;;;7.40;99.90;;;6.26;100.00;96337.44;5052603;28;20507;-72
2021/11/04 05:50:08;;;;;;;37.87;27.90;;;7.50;99.90;;;5.76;100.00;96258.91;5048535;28;20562;-72
2021/11/04 05:52:35;;;;;;;35.90;25.70;;;7.50;99.90;;;6.13;100.00;96336.56;5050769;28;20576;-74
2021/11/04 05:55:02;;;;;;;34.67;26.30;;;7.50;99.90;;;6.18;100.00;96335.88;5050229;28;20972;-72
2021/11/04 05:57:29;;;;;;;37.20;25.60;;;7.50;99.90;;;6.17;100.00;96343.13;5056159;28;20462;-71
2021/11/04 05:59:57;;;;;;;36.53;25.60;;;7.50;99.90;;;6.18;100.00;96341.25;5050698;28;20565;-71
2021/11/04 06:02:24;;;;;;;34.50;26.27;;;7.50;99.90;;;6.02;100.00;96350.78;5050512;28;20500;-72
2021/11/04 06:04:51;;;;;;;34.60;26.47;;;7.40;99.90;;;6.01;100.00;96373.22;5046182;28;20545;-72
2021/11/04 06:07:19;;;;;;;37.23;27.10;;;7.40;99.90;;;6.11;100.00;96380.75;5043316;28;20532;-72
2021/11/04 06:09:46;;;;;;;35.40;26.83;;;7.40;99.90;;;6.07;100.00;96370.50;5049820;28;20504;-73
2021/11/04 06:12:14;;;;;;;34.37;24.83;;;7.40;99.90;;;6.07;100.00;96364.31;5050302;28;20927;-73
2021/11/04 06:14:41;;;;;;;33.90;25.73;;;7.40;99.90;;;5.95;100.00;96348.16;5049792;28;20512;-72
2021/11/04 06:17:08;;;;;;;32.33;24.63;;;7.30;99.90;;;6.00;100.00;96353.63;5050213;28;20442;-72
2021/11/04 06:19:35;;;;;;;38.57;26.23;;;7.30;99.90;;;5.83;100.00;96340.03;5048816;28;21191;-72
2021/11/04 06:22:03;;;;;;;40.80;26.50;;;7.30;99.90;;;5.90;100.00;96351.50;5050199;28;20572;-72
2021/11/04 06:24:31;;;;;;;38.83;25.87;;;7.30;99.90;;;5.85;100.00;96347.84;5050009;28;20489;-73
2021/11/04 06:26:58;;;;;;;36.20;24.73;;;7.20;99.90;;;5.82;100.00;96339.22;5049698;28;20493;-73
2021/11/04 06:29:25;;;;;;;35.97;25.20;;;7.20;99.90;;;5.84;100.00;96336.34;5046298;28;20543;-73
2021/11/04 06:31:52;;;;;;;33.70;23.50;;;7.20;99.90;;;5.88;100.00;96353.59;5049587;28;20453;-73
2021/11/04 06:34:19;;;;;;;32.70;23.77;;;7.20;99.90;;;5.80;100.00;96346.69;5053198;28;20721;-74
2021/11/04 06:36:46;;;;;;;35.17;24.23;;;7.20;99.90;;;5.84;100.00;96357.78;5050338;28;20507;-74
2021/11/04 06:39:14;;;;;;;33.63;23.17;;;7.20;99.90;;;5.87;100.00;96351.97;5050396;28;20540;-72
2021/11/04 06:41:43;;;;;;;33.53;22.57;;;7.20;99.90;;;5.73;100.00;96342.44;5049664;28;20474;-72
2021/11/04 06:44:10;;;;;;;36.97;23.17;;;7.10;99.90;;;5.77;100.00;96349.00;5047193;28;20476;-71
2021/11/04 06:46:39;;;;;;;31.70;21.60;;;7.10;99.90;;;5.75;100.00;96357.25;5047140;28;20808;-73
2021/11/04 06:49:08;;;;;;;31.10;22.47;;;7.10;99.90;;;5.81;100.00;96352.84;5049817;28;20505;-73
2021/11/04 06:51:40;;;;;;;35.57;23.40;;;7.20;99.90;;;5.87;100.00;96362.69;5048678;28;20932;-72
2021/11/04 06:54:09;;;;;;;32.10;21.87;;;7.20;99.90;;;6.17;100.00;96388.72;5053103;28;20812;-72
2021/11/04 06:56:40;;;;;;;30.77;21.10;;;7.40;99.90;;;5.91;100.00;96373.75;5066987;28;20453;-73
2021/11/04 06:59:17;;;;;;;30.33;22.17;;;7.40;99.90;;;6.07;100.00;96404.53;5047415;28;20814;-72
2021/11/04 07:01:51;;;;;;;30.20;20.37;;;7.40;99.90;;;6.19;100.00;96408.09;5051670;28;20520;-72
2021/11/04 07:04:27;;;;;;;29.70;21.50;;;7.40;99.90;;;6.16;100.00;96403.19;5049305;28;20466;-73
2021/11/04 07:07:02;;;;;;;32.73;22.10;;;7.50;99.90;;;6.31;100.00;96415.38;5050642;28;20453;-73
2021/11/04 07:09:31;;;;;;;29.37;20.33;;;7.50;99.90;;;6.30;100.00;96421.78;5048800;28;20820;-73
2021/11/04 07:11:59;;;;;;;24.47;17.27;;;7.50;99.90;;;6.27;100.00;96430.25;5047361;28;20533;-75
2021/11/04 07:14:29;;;;;;;30.47;23.17;;;7.60;99.90;;;6.38;100.00;96422.28;5045679;28;20520;-73
2021/11/04 07:16:59;;;;;;;27.17;19.80;;;7.60;99.90;;;6.68;100.00;96430.53;5047323;28;20451;-72
2021/11/04 07:19:27;;;;;;;26.17;20.07;;;7.80;99.90;;;6.62;100.00;96424.22;5048743;28;20466;-74
2021/11/04 07:22:05;;;;;;;28.33;19.60;;;7.80;99.90;;;6.63;100.00;96434.69;5050160;28;20470;-73
2021/11/04 07:24:37;;;;;;;20.63;16.23;;;7.90;99.90;;;6.52;100.00;96444.34;5048905;28;21024;-73
2021/11/04 07:27:15;;;;;;;21.30;17.10;;;7.80;99.90;;;6.29;100.00;96428.16;5046740;28;20450;-73
2021/11/04 07:29:47;;;;;;;22.67;16.07;;;7.70;99.40;;;6.58;100.00;96431.06;5049831;28;20961;-72
2021/11/04 07:32:19;;;;;;;19.57;15.50;;;7.80;99.90;;;6.36;100.00;96413.59;5048048;28;20454;-73
2021/11/04 07:34:50;;;;;;;23.30;15.27;;;7.70;99.90;;;6.26;100.00;96423.25;5044436;28;20458;-72
2021/11/04 07:37:18;;;;;;;19.63;16.13;;;7.70;99.20;;;6.20;100.00;96428.50;5048884;28;20457;-72
2021/11/04 07:39:45;;;;;;;18.93;14.57;;;7.60;99.60;;;6.24;100.00;96432.34;5047199;28;20916;-73
2021/11/04 07:42:12;;;;;;;21.83;15.50;;;7.60;99.90;;;6.30;100.00;96437.88;5048950;28;20519;-72
2021/11/04 07:44:39;;;;;;;17.77;13.33;;;7.60;99.90;;;6.24;100.00;96431.53;5047226;28;20486;-72
2021/11/04 07:47:09;;;;;;;18.10;14.50;;;7.60;98.80;;;6.16;100.00;96430.00;5040336;28;20904;-72
2021/11/04 07:49:37;;;;;;;18.30;14.50;;;7.50;99.90;;;6.19;100.00;96434.91;5047687;28;20493;-73
2021/11/04 07:52:07;;;;;;;17.57;13.60;;;7.50;99.90;;;6.15;100.00;96432.88;5046207;28;20470;-73
2021/11/04 07:54:35;;;;;;;15.80;12.97;;;7.50;99.90;;;6.23;100.00;96425.34;5047843;28;20863;-72
2021/11/04 07:57:03;;;;;;;13.87;11.77;;;7.60;99.90;;;6.30;100.00;96456.66;5048916;28;20446;-73
2021/11/04 07:59:31;;;;;;;14.87;12.73;;;7.60;99.90;;;6.20;100.00;96452.63;5047161;28;20721;-72
2021/11/04 08:02:00;;;;;;;15.40;11.50;;;7.60;99.90;;;6.35;100.00;96464.81;5045655;28;20470;-72
2021/11/04 08:04:29;;;;;;;11.10;9.87;;;7.70;98.50;;;6.41;99.88;96469.28;5046833;28;20462;-73
2021/11/04 08:06:56;;;;;;;11.07;8.80;;;7.70;97.80;;;6.26;99.59;96469.69;5046623;28;20468;-72
2021/11/04 08:09:24;;;;;;;9.57;8.10;;;7.70;96.80;;;6.27;99.47;96473.16;5047584;28;20466;-73
2021/11/04 08:11:51;;;;;;;10.80;7.30;;;7.60;95.80;;;6.34;98.57;96468.56;5049185;28;20523;-71
2021/11/04 08:14:18;;;;;;;7.17;5.70;;;7.60;96.50;;;6.34;98.39;96469.34;5049562;28;20541;-72
2021/11/04 08:16:45;;;;;;;7.50;5.63;;;7.60;96.20;;;6.15;97.46;96471.25;5043233;28;20815;-73
2021/11/04 08:19:12;;;;;;;5.20;4.70;;;7.50;94.50;;;6.15;96.96;96476.63;5045351;28;20462;-72
2021/11/04 08:21:40;;;;;;;4.97;4.47;;;7.50;93.70;;;5.98;96.92;96473.69;5048597;28;20513;-72
2021/11/04 08:24:07;;;;;;;5.20;4.70;;;7.50;93.90;;;5.96;96.87;96499.91;5046834;28;20490;-72
2021/11/04 08:26:34;;;;;;;4.20;3.80;;;7.40;94.20;;;6.09;96.14;96497.13;5053332;28;20457;-71
2021/11/04 08:29:02;;;;;;;8.40;3.20;;;7.40;92.90;;;5.91;95.81;96505.09;5046461;28;20549;-73
2021/11/04 08:31:29;;;;;;;2.43;2.23;;;7.30;92.40;;;5.78;95.42;96501.53;5043129;28;20542;-72
2021/11/04 08:33:57;;;;;;;2.33;2.13;;;7.20;92.30;;;5.84;96.25;96507.03;5056506;28;20871;-73
2021/11/04 08:36:24;;;;;;;2.97;2.77;;;7.20;93.40;;;5.74;96.08;96491.47;5048681;28;20561;-73
2021/11/04 08:38:56;;;;;;;4.90;3.17;;;7.20;92.70;;;5.88;96.81;96503.69;5047323;28;20558;-75
2021/11/04 08:41:23;;;;;;;3.53;2.77;;;7.20;93.90;;;5.73;96.71;96520.13;5047674;28;20544;-71
2021/11/04 08:43:50;;;;;;;2.83;2.60;;;7.20;93.00;;;5.61;95.54;96525.41;5067220;28;20480;-72
2021/11/04 08:46:17;;;;;;;2.50;2.30;;;7.00;91.50;;;5.55;94.84;96534.34;5046898;28;20957;-75
2021/11/04 08:48:45;;;;;;;2.83;2.63;;;7.00;91.90;;;5.63;95.42;96533.22;5047837;28;20494;-71
2021/11/04 08:51:12;;;;;;;3.17;2.87;;;7.00;93.00;;;5.81;95.92;96545.81;5048039;28;20501;-72
2021/11/04 08:53:40;;;;;;;2.63;2.43;;;7.10;93.00;;;5.84;93.87;96540.03;5045089;28;20555;-72
2021/11/04 08:56:09;;;;;;;3.13;2.83;;;7.20;91.20;;;5.67;94.50;96524.50;5060371;28;20958;-71
2021/11/04 08:58:36;;;;;;;3.50;3.20;;;7.20;91.60;;;5.85;94.90;96556.94;5044644;28;20493;-72
2021/11/04 09:01:05;;;;;;;3.87;3.57;;;7.20;91.90;;;5.71;93.42;96529.44;5046175;28;20496;-72
2021/11/04 09:03:32;;;;;;;4.37;3.40;;;7.20;91.00;;;5.61;94.38;96544.16;5044830;28;20512;-73
2021/11/04 09:05:59;;;;;;;3.43;3.23;;;7.20;90.70;;;5.30;93.12;96497.66;5045782;28;20488;-74
2021/11/04 09:08:26;;;;;;;4.70;4.30;;;7.10;90.40;;;5.64;93.82;96557.09;5043779;28;20465;-72
2021/11/04 09:10:54;;;;;;;4.80;4.10;;;7.10;90.90;;;5.71;92.71;96549.00;5041059;28;20459;-72
2021/11/04 09:13:23;;;;;;;5.07;4.57;;;7.10;89.10;;;5.82;93.09;96559.03;5040101;28;20466;-72
2021/11/04 09:15:51;;;;;;;5.60;5.10;;;7.20;90.40;;;5.85;91.62;96560.44;5046351;28;20462;-74
2021/11/04 09:18:19;;;;;;;5.63;5.20;;;7.20;88.40;;;5.90;91.32;96560.59;5051020;28;20537;-72
2021/11/04 09:20:46;;;;;;;5.30;4.90;;;7.30;88.80;;;5.83;92.35;96581.25;5050658;28;21047;-72
2021/11/04 09:23:14;;;;;;;5.50;5.00;;;7.20;88.60;;;5.58;93.26;96584.78;5065666;28;20506;-73
2021/11/04 09:25:41;;;;;;;6.90;6.40;;;7.00;90.00;;;5.66;93.00;96592.53;5050004;28;20535;-72
2021/11/04 09:28:08;;;;;;;5.53;4.87;;;7.00;90.60;;;5.56;93.70;96602.13;5052448;28;20552;-73
2021/11/04 09:30:37;;;;;;;5.77;5.03;;;7.00;90.60;;;5.62;92.45;96595.91;5047684;28;22630;-72
2021/11/04 09:33:04;;;;;;;6.17;5.67;;;7.00;90.00;;;5.52;94.70;96607.06;5050046;28;20496;-72
2021/11/04 09:35:31;;;;;;;7.27;6.57;;;6.90;91.30;;;5.46;94.33;96602.59;5047357;28;20524;-72
2021/11/04 09:37:58;;;;;;;6.60;6.00;;;6.90;91.00;;;5.32;93.78;96612.59;5049980;28;20462;-72
2021/11/04 09:40:27;;;;;;;7.83;7.13;;;6.90;90.50;;;5.33;95.28;96614.25;5058099;28;20466;-72
2021/11/04 09:42:54;;;;;;;6.47;5.97;;;6.80;91.80;;;5.64;94.85;96629.47;5043556;28;20481;-71
2021/11/04 09:45:23;;;;;;;7.20;6.60;;;6.90;92.40;;;5.86;92.52;96629.09;5046969;28;20562;-72
2021/11/04 09:47:52;;;;;;;6.40;5.80;;;7.10;90.40;;;5.57;92.88;96636.75;5047055;28;20466;-73
2021/11/04 09:50:20;;;;;;;7.07;6.47;;;7.00;89.80;;;5.76;92.84;96629.59;5047450;28;21070;-72
2021/11/04 09:52:53;;;;;;;6.50;5.90;;;7.10;90.80;;;5.79;92.30;96628.31;5044484;28;21094;-72
2021/11/04 09:55:24;;;;;;;8.17;7.47;;;7.20;89.00;;;5.82;92.13;96636.75;5050554;28;20450;-72
2021/11/04 09:57:54;;;;;;;6.93;6.33;;;7.30;89.10;;;5.85;91.58;96640.03;5050312;28;20958;-72
2021/11/04 10:00:23;;;;;;;6.87;6.27;;;7.20;88.90;;;5.91;91.09;96623.06;5048495;28;20961;-73
2021/11/04 10:03:05;;;;;;;7.77;7.10;;;7.30;88.20;;;6.18;91.51;96630.88;5047068;28;20510;-73
2021/11/04 10:05:44;;;;;;;7.27;6.67;;;7.50;89.30;;;6.23;89.14;96645.28;5049356;28;20454;-74
2021/11/04 10:08:14;;;;;;;7.20;6.50;;;7.60;85.10;;;5.83;91.69;96637.56;5048135;28;20458;-73
2021/11/04 10:10:41;;;;;;;6.43;5.80;;;7.40;87.50;;;5.89;92.34;96649.25;5050491;28;20913;-72
2021/11/04 10:13:11;;;;;;;7.10;6.40;;;7.30;88.50;;;6.29;90.91;96653.47;5067347;28;20515;-73
2021/11/04 10:15:42;;;;;;;7.23;6.60;;;7.50;88.50;;;6.12;90.06;96639.84;5058846;28;20537;-73
2021/11/04 10:18:19;;;;;;;7.10;6.50;;;7.60;85.70;;;6.45;89.45;96652.09;5049768;28;20592;-73
2021/11/04 10:20:56;;;;;;;6.23;5.73;;;7.70;85.60;;;6.41;88.83;96667.81;5049120;28;20453;-71
2021/11/04 10:23:25;;;;;;;6.77;6.17;;;7.80;85.40;;;6.72;89.05;96666.03;5049554;28;20514;-72